createdAt,value
2023-02-20T00:01:55.237Z,8.60
2023-02-20T00:04:24.891Z,8.80
2023-02-20T00:06:53.173Z,10.27
2023-02-20T00:09:21.498Z,9.80
2023-02-20T00:11:50.324Z,8.80
2023-02-20T00:14:18.561Z,9.47
2023-02-20T00:16:48.817Z,9.70
2023-02-20T00:19:17.091Z,10.00
2023-02-20T00:21:50.129Z,10.63
2023-02-20T00:24:18.832Z,9.17
2023-02-20T00:26:50.640Z,10.70
2023-02-20T00:29:19.257Z,10.50
2023-02-20T00:31:52.194Z,8.80
2023-02-20T00:34:20.546Z,11.33
2023-02-20T00:36:50.276Z,11.13
2023-02-20T00:39:18.608Z,11.37
2023-02-20T00:41:47.067Z,11.13
2023-02-20T00:44:15.389Z,10.70
2023-02-20T00:46:43.733Z,9.90
2023-02-20T00:49:12.048Z,11.00
2023-02-20T00:51:40.332Z,11.57
2023-02-20T00:54:10.116Z,11.40
2023-02-20T00:56:38.509Z,14.20
2023-02-20T00:59:06.799Z,12.40
2023-02-20T01:01:35.358Z,13.10
2023-02-20T01:04:03.641Z,11.97
2023-02-20T01:06:31.962Z,12.47
2023-02-20T01:09:00.300Z,13.03
2023-02-20T01:11:30.014Z,10.90
2023-02-20T01:13:58.289Z,12.20
2023-02-20T01:16:26.613Z,14.20
2023-02-20T01:18:55.074Z,12.20
2023-02-20T01:21:23.387Z,14.70
2023-02-20T01:23:51.827Z,12.07
2023-02-20T01:26:20.202Z,13.70
2023-02-20T01:28:50.131Z,12.00
2023-02-20T01:31:18.499Z,12.67
2023-02-20T01:33:47.970Z,12.60
2023-02-20T01:36:16.656Z,11.27
2023-02-20T01:38:44.919Z,11.87
2023-02-20T01:41:13.545Z,10.40
2023-02-20T01:43:41.890Z,11.73
2023-02-20T01:46:44.317Z,9.60
2023-02-20T01:49:14.907Z,10.73
2023-02-20T01:51:44.953Z,11.33
2023-02-20T01:54:14.736Z,8.40
2023-02-20T01:56:45.604Z,9.90
2023-02-20T01:59:14.077Z,7.93
2023-02-20T02:01:43.739Z,8.23
2023-02-20T02:04:12.655Z,8.93
2023-02-20T02:06:42.450Z,8.57
2023-02-20T02:09:20.384Z,8.30
2023-02-20T02:11:50.823Z,7.43
2023-02-20T02:14:19.382Z,7.30
2023-02-20T02:16:54.231Z,6.73
2023-02-20T02:19:34.518Z,6.83
2023-02-20T02:22:18.346Z,7.10
2023-02-20T02:25:05.681Z,6.20
2023-02-20T02:27:57.814Z,5.80
2023-02-20T02:30:37.443Z,7.03
2023-02-20T02:33:17.962Z,6.83
2023-02-20T02:36:06.854Z,6.10
2023-02-20T02:38:40.993Z,6.10
2023-02-20T02:41:12.397Z,6.07
2023-02-20T02:43:48.569Z,5.93
2023-02-20T02:46:22.193Z,6.70
2023-02-20T02:48:54.669Z,4.87
2023-02-20T02:51:25.583Z,4.80
2023-02-20T02:54:07.749Z,4.37
2023-02-20T02:56:36.655Z,5.30
2023-02-20T02:59:05.490Z,5.40
2023-02-20T03:01:35.127Z,4.73
2023-02-20T03:04:03.866Z,6.50
2023-02-20T03:06:35.845Z,4.40
2023-02-20T03:09:05.321Z,5.03
2023-02-20T03:11:36.025Z,4.37
2023-02-20T03:14:24.246Z,4.63
2023-02-20T03:16:54.407Z,4.90
2023-02-20T03:19:27.909Z,5.00
2023-02-20T03:21:57.932Z,4.63
2023-02-20T03:24:27.496Z,5.00
2023-02-20T03:26:58.564Z,5.10
2023-02-20T03:29:29.950Z,4.30
2023-02-20T03:32:20.420Z,5.33
2023-02-20T03:35:07.252Z,4.67
2023-02-20T03:37:54.880Z,5.10
2023-02-20T03:40:41.797Z,5.40
2023-02-20T03:43:25.116Z,4.30
2023-02-20T03:45:54.472Z,4.07
2023-02-20T03:48:26.089Z,4.20
2023-02-20T03:50:54.569Z,4.77
2023-02-20T03:53:23.279Z,4.20
2023-02-20T03:55:53.017Z,4.17
2023-02-20T03:58:26.459Z,3.83
2023-02-20T04:00:57.509Z,3.20
2023-02-20T04:03:27.762Z,4.00
2023-02-20T04:05:57.252Z,3.17
2023-02-20T04:08:26.824Z,3.50
2023-02-20T04:10:58.857Z,3.37
2023-02-20T04:13:28.747Z,4.00
2023-02-20T04:15:58.300Z,4.13
2023-02-20T04:18:28.162Z,3.77
2023-02-20T04:20:57.706Z,4.10
2023-02-20T04:23:26.849Z,4.40
2023-02-20T04:25:57.597Z,4.67
2023-02-20T04:28:26.328Z,4.70
2023-02-20T04:30:56.395Z,3.80
2023-02-20T04:33:25.214Z,3.40
2023-02-20T04:35:54.144Z,3.77
2023-02-20T04:38:22.451Z,4.10
2023-02-20T04:40:50.888Z,4.30
2023-02-20T04:43:19.084Z,3.80
2023-02-20T04:45:47.450Z,5.40
2023-02-20T04:48:17.149Z,3.80
2023-02-20T04:50:45.558Z,3.70
2023-02-20T04:53:13.887Z,4.00
2023-02-20T04:55:42.141Z,4.73
2023-02-20T04:58:10.406Z,4.77
2023-02-20T05:00:38.639Z,4.80
2023-02-20T05:03:06.983Z,4.07
2023-02-20T05:05:36.790Z,4.20
2023-02-20T05:08:06.072Z,3.10
2023-02-20T05:10:35.233Z,4.30
2023-02-20T05:13:03.732Z,4.60
2023-02-20T05:15:32.943Z,3.77
2023-02-20T05:18:01.264Z,3.97
2023-02-20T05:20:43.605Z,5.03
2023-02-20T05:23:13.570Z,4.30
2023-02-20T05:25:41.966Z,3.43
2023-02-20T05:28:10.541Z,4.93
2023-02-20T05:30:39.036Z,4.87
2023-02-20T05:33:07.540Z,4.10
2023-02-20T05:35:39.636Z,5.40
2023-02-20T05:38:07.873Z,4.60
2023-02-20T05:40:37.583Z,4.67
2023-02-20T05:43:06.067Z,4.07
2023-02-20T05:45:34.332Z,4.90
2023-02-20T05:48:02.991Z,6.77
2023-02-20T05:50:31.256Z,4.20
2023-02-20T05:52:59.707Z,5.37
2023-02-20T05:55:27.992Z,5.00
2023-02-20T05:57:57.614Z,4.50
2023-02-20T06:00:26.236Z,5.20
2023-02-20T06:02:54.514Z,4.70
2023-02-20T06:05:24.739Z,5.07
2023-02-20T06:07:52.980Z,4.90
2023-02-20T06:10:21.869Z,4.97
2023-02-20T06:12:50.081Z,3.93
2023-02-20T06:15:20.173Z,3.93
2023-02-20T06:17:48.456Z,4.97
2023-02-20T06:20:17.230Z,4.80
2023-02-20T06:22:45.817Z,6.07
2023-02-20T06:25:14.359Z,5.67
2023-02-20T06:27:42.794Z,5.00
2023-02-20T06:30:11.709Z,4.13
2023-02-20T06:32:41.584Z,6.23
2023-02-20T06:35:10.762Z,4.90
2023-02-20T06:37:39.098Z,5.60
2023-02-20T06:40:07.875Z,5.70
2023-02-20T06:42:36.206Z,6.13
2023-02-20T06:45:04.614Z,5.50
2023-02-20T06:47:33.211Z,5.40
2023-02-20T06:50:07.456Z,6.00
2023-02-20T06:52:35.717Z,5.43
2023-02-20T06:55:03.969Z,6.00
2023-02-20T06:57:33.932Z,4.80
2023-02-20T07:00:02.248Z,4.77
2023-02-20T07:02:30.594Z,5.60
2023-02-20T07:04:58.967Z,6.10
2023-02-20T07:07:28.656Z,5.97
2023-02-20T07:09:57.039Z,5.47
2023-02-20T07:12:25.275Z,4.90
2023-02-20T07:14:53.472Z,7.50
2023-02-20T07:17:21.770Z,6.20
2023-02-20T07:19:50.103Z,6.90
2023-02-20T07:22:18.685Z,6.57
2023-02-20T07:24:51.504Z,5.80
2023-02-20T07:27:19.831Z,6.37
2023-02-20T07:29:48.674Z,6.83
2023-02-20T07:32:20.616Z,6.90
2023-02-20T07:35:02.988Z,6.93
2023-02-20T07:37:33.393Z,5.73
2023-02-20T07:40:03.049Z,6.57
2023-02-20T07:42:32.702Z,6.47
2023-02-20T07:45:00.997Z,6.37
2023-02-20T07:47:29.340Z,7.30
2023-02-20T07:49:57.754Z,7.87
2023-02-20T07:52:26.925Z,7.20
2023-02-20T07:54:55.546Z,9.97
2023-02-20T07:57:25.295Z,7.57
2023-02-20T07:59:53.656Z,9.03
2023-02-20T08:02:21.931Z,7.70
2023-02-20T08:04:50.304Z,9.67
2023-02-20T08:07:18.544Z,9.23
2023-02-20T08:09:48.672Z,9.07
2023-02-20T08:12:17.320Z,10.73
2023-02-20T08:14:46.987Z,10.20
2023-02-20T08:17:15.523Z,11.40
2023-02-20T08:19:43.963Z,11.67
2023-02-20T08:22:12.389Z,9.90
2023-02-20T08:24:40.876Z,11.40
2023-02-20T08:27:09.197Z,11.43
2023-02-20T08:29:37.501Z,11.77
2023-02-20T08:32:07.621Z,14.83
2023-02-20T08:34:36.063Z,13.50
2023-02-20T08:37:04.285Z,14.97
2023-02-20T08:39:32.565Z,13.10
2023-02-20T08:42:00.813Z,11.97
2023-02-20T08:44:29.174Z,12.53
2023-02-20T08:46:58.533Z,12.57
2023-02-20T08:49:28.402Z,11.37
2023-02-20T08:51:58.249Z,11.73
2023-02-20T08:54:26.676Z,10.60
2023-02-20T08:56:54.972Z,11.23
2023-02-20T08:59:23.398Z,9.50
2023-02-20T09:01:51.933Z,11.20
2023-02-20T09:04:22.077Z,12.97
2023-02-20T09:06:51.714Z,11.20
2023-02-20T09:09:20.030Z,10.60
2023-02-20T09:11:48.454Z,10.90
2023-02-20T09:14:16.866Z,10.77
2023-02-20T09:16:45.220Z,12.50
2023-02-20T09:19:15.278Z,11.87
2023-02-20T09:21:47.214Z,12.00
2023-02-20T09:24:16.881Z,10.40
2023-02-20T09:26:45.245Z,12.23
2023-02-20T09:29:13.809Z,12.50
2023-02-20T09:31:42.348Z,13.50
2023-02-20T09:34:11.070Z,12.33
2023-02-20T09:36:39.319Z,13.67
2023-02-20T09:39:07.596Z,11.27
2023-02-20T09:41:44.024Z,15.63
2023-02-20T09:44:14.442Z,12.90
2023-02-20T09:46:45.551Z,12.73
2023-02-20T09:49:14.896Z,14.43
2023-02-20T09:51:46.646Z,12.23
2023-02-20T09:54:16.637Z,13.50
2023-02-20T09:56:47.418Z,13.60
2023-02-20T09:59:17.218Z,13.30
2023-02-20T10:01:51.804Z,10.93
2023-02-20T10:04:23.385Z,14.07
2023-02-20T10:06:53.100Z,12.50
2023-02-20T10:09:21.412Z,13.77
2023-02-20T10:11:59.950Z,13.60
2023-02-20T10:14:35.818Z,15.53
2023-02-20T10:17:10.837Z,15.03
2023-02-20T10:19:43.920Z,14.63
2023-02-20T10:22:15.335Z,13.80
2023-02-20T10:24:54.008Z,13.20
2023-02-20T10:27:30.601Z,15.90
2023-02-20T10:29:59.721Z,13.63
2023-02-20T10:32:31.789Z,14.47
2023-02-20T10:35:03.056Z,15.17
2023-02-20T10:37:46.596Z,14.17
2023-02-20T10:40:20.178Z,13.10
2023-02-20T10:42:53.002Z,13.50
2023-02-20T10:45:27.683Z,14.10
2023-02-20T10:48:00.092Z,12.60
2023-02-20T10:50:31.710Z,12.50
2023-02-20T10:53:02.972Z,12.60
2023-02-20T10:55:36.113Z,12.43
2023-02-20T10:58:07.938Z,13.40
2023-02-20T11:00:40.087Z,12.77
2023-02-20T11:03:09.964Z,15.07
2023-02-20T11:05:40.464Z,14.57
2023-02-20T11:08:08.985Z,11.93
2023-02-20T11:10:42.431Z,15.00
2023-02-20T11:13:16.648Z,14.77
2023-02-20T11:15:45.608Z,12.70
2023-02-20T11:18:21.906Z,13.37
2023-02-20T11:20:50.228Z,13.40
2023-02-20T11:23:36.081Z,13.50
2023-02-20T11:26:23.187Z,11.77
2023-02-20T11:28:58.716Z,14.57
2023-02-20T11:31:27.174Z,11.97
2023-02-20T11:33:57.027Z,11.70
2023-02-20T11:36:26.720Z,14.07
2023-02-20T11:39:00.176Z,13.70
2023-02-20T11:41:30.560Z,13.93
2023-02-20T11:44:18.300Z,13.13
2023-02-20T11:46:47.426Z,13.23
2023-02-20T11:49:26.944Z,13.87
2023-02-20T11:52:07.832Z,12.67
2023-02-20T11:54:36.145Z,14.00
2023-02-20T11:57:06.193Z,12.60
2023-02-20T11:59:37.715Z,13.73
2023-02-20T12:02:25.512Z,12.40
2023-02-20T12:05:17.981Z,13.63
2023-02-20T12:07:55.335Z,11.93
2023-02-20T12:10:26.247Z,12.73
2023-02-20T12:12:54.951Z,13.40
2023-02-20T12:15:25.900Z,12.80
2023-02-20T12:18:14.424Z,12.50
2023-02-20T12:20:44.624Z,13.30
2023-02-20T12:23:18.586Z,9.93
2023-02-20T12:25:54.433Z,12.17
2023-02-20T12:28:25.889Z,12.43
2023-02-20T12:31:00.374Z,13.17
2023-02-20T12:33:40.001Z,12.83
2023-02-20T12:36:12.765Z,12.37
2023-02-20T12:38:45.701Z,12.50
2023-02-20T12:41:34.728Z,12.87
2023-02-20T12:44:14.391Z,11.60
2023-02-20T12:46:50.417Z,12.23
2023-02-20T12:49:24.846Z,13.30
2023-02-20T12:51:54.994Z,11.70
2023-02-20T12:54:29.169Z,13.20
2023-02-20T12:57:02.883Z,12.00
2023-02-20T12:59:33.509Z,11.50
2023-02-20T13:02:06.352Z,12.43
2023-02-20T13:04:37.714Z,11.80
2023-02-20T13:07:09.810Z,10.97
2023-02-20T13:09:39.007Z,11.63
2023-02-20T13:12:09.331Z,14.93
2023-02-20T13:14:43.024Z,12.57
2023-02-20T13:17:20.201Z,11.17
2023-02-20T13:19:54.976Z,11.33
2023-02-20T13:22:23.242Z,10.70
2023-02-20T13:24:51.568Z,11.70
2023-02-20T13:27:29.822Z,10.77
2023-02-20T13:29:59.650Z,10.50
2023-02-20T13:32:30.467Z,12.50
2023-02-20T13:35:13.644Z,10.50
2023-02-20T13:37:57.631Z,10.40
2023-02-20T13:40:39.201Z,10.20
2023-02-20T13:43:37.667Z,9.23
2023-02-20T13:46:20.302Z,13.00
2023-02-20T13:48:50.555Z,10.80
2023-02-20T13:51:32.329Z,11.57
2023-02-20T13:54:05.435Z,11.73
2023-02-20T13:56:44.617Z,11.47
2023-02-20T13:59:14.985Z,10.77
2023-02-20T14:01:56.085Z,10.67
2023-02-20T14:04:25.980Z,10.10
2023-02-20T14:06:59.197Z,10.00
2023-02-20T14:09:31.531Z,10.50
2023-02-20T14:12:07.961Z,10.80
2023-02-20T14:14:37.738Z,11.33
2023-02-20T14:17:07.847Z,11.37
2023-02-20T14:19:41.476Z,8.73
2023-02-20T14:22:30.850Z,10.90
2023-02-20T14:25:19.791Z,10.27
2023-02-20T14:27:50.331Z,13.13
2023-02-20T14:30:19.656Z,11.13
2023-02-20T14:32:48.977Z,11.20
2023-02-20T14:35:41.306Z,8.83
2023-02-20T14:38:15.367Z,10.93
2023-02-20T14:40:46.254Z,11.33
2023-02-20T14:43:17.092Z,9.63
2023-02-20T14:45:47.665Z,10.60
2023-02-20T14:48:42.330Z,9.40
2023-02-20T14:51:16.498Z,12.27
2023-02-20T14:53:46.112Z,13.83
2023-02-20T14:56:17.446Z,8.03
2023-02-20T14:58:46.293Z,9.17
2023-02-20T15:01:21.548Z,11.07
2023-02-20T15:03:59.492Z,12.17
2023-02-20T15:06:27.889Z,14.00
2023-02-20T15:09:03.574Z,15.27
2023-02-20T15:11:47.424Z,15.60
2023-02-20T15:14:19.455Z,16.13
2023-02-20T15:16:47.965Z,10.90
2023-02-20T15:19:23.353Z,10.70
2023-02-20T15:21:58.169Z,14.33
2023-02-20T15:24:35.873Z,16.43
2023-02-20T15:27:16.235Z,16.43
2023-02-20T15:29:46.157Z,14.53
2023-02-20T15:32:22.574Z,15.67
2023-02-20T15:34:55.260Z,14.70
2023-02-20T15:37:33.711Z,14.57
2023-02-20T15:40:18.416Z,15.10
2023-02-20T15:42:50.024Z,13.50
2023-02-20T15:45:18.508Z,13.40
2023-02-20T15:47:46.842Z,14.67
2023-02-20T15:50:15.180Z,13.27
2023-02-20T15:52:47.546Z,14.10
2023-02-20T15:55:17.630Z,12.70
2023-02-20T15:57:46.356Z,14.23
2023-02-20T16:00:22.270Z,9.50
2023-02-20T16:02:50.911Z,11.40
2023-02-20T16:05:21.626Z,8.13
2023-02-20T16:07:50.038Z,11.73
2023-02-20T16:10:19.726Z,11.17
2023-02-20T16:12:48.629Z,12.40
2023-02-20T16:15:18.181Z,11.10
2023-02-20T16:17:48.220Z,13.83
2023-02-20T16:20:17.685Z,12.37
2023-02-20T16:22:47.075Z,11.90
2023-02-20T16:25:18.200Z,9.97
2023-02-20T16:27:52.898Z,12.33
2023-02-20T16:30:32.694Z,12.43
2023-02-20T16:33:03.939Z,12.03
2023-02-20T16:35:32.255Z,12.87
2023-02-20T16:38:01.558Z,7.93
2023-02-20T16:40:29.911Z,11.97
2023-02-20T16:42:58.340Z,11.80
2023-02-20T16:45:26.856Z,11.43
2023-02-20T16:47:56.827Z,10.20
2023-02-20T16:50:30.057Z,11.40
2023-02-20T16:52:58.994Z,11.47
2023-02-20T16:55:28.118Z,10.90
2023-02-20T16:57:56.530Z,11.57
2023-02-20T17:00:26.207Z,11.13
2023-02-20T17:02:54.715Z,11.20
2023-02-20T17:05:24.184Z,9.90
2023-02-20T17:07:53.902Z,9.87
2023-02-20T17:10:22.428Z,10.20
2023-02-20T17:12:50.738Z,10.43
2023-02-20T17:15:20.005Z,9.20
2023-02-20T17:17:48.263Z,9.20
2023-02-20T17:20:17.593Z,9.60
2023-02-20T17:22:55.677Z,10.13
2023-02-20T17:25:33.308Z,10.70
2023-02-20T17:28:01.711Z,10.73
2023-02-20T17:30:30.110Z,11.87
2023-02-20T17:32:59.278Z,12.23
2023-02-20T17:35:27.567Z,6.97
2023-02-20T17:37:55.903Z,10.00
2023-02-20T17:40:24.135Z,10.60
2023-02-20T17:42:54.042Z,11.23
2023-02-20T17:45:22.316Z,11.50
2023-02-20T17:47:50.701Z,12.00
2023-02-20T17:50:19.407Z,9.33
2023-02-20T17:52:49.408Z,11.00
2023-02-20T17:55:26.503Z,8.70
2023-02-20T17:57:56.314Z,9.67
2023-02-20T18:00:27.860Z,9.93
2023-02-20T18:03:03.445Z,11.10
2023-02-20T18:05:38.670Z,9.63
2023-02-20T18:08:06.922Z,11.00
2023-02-20T18:10:35.208Z,11.77
2023-02-20T18:13:26.630Z,12.67
2023-02-20T18:16:17.765Z,11.90
2023-02-20T18:18:47.460Z,12.53
2023-02-20T18:21:18.695Z,13.80
2023-02-20T18:23:47.116Z,13.93
2023-02-20T18:26:16.355Z,11.93
2023-02-20T18:28:44.705Z,10.97
2023-02-20T18:31:13.794Z,10.83
2023-02-20T18:33:43.331Z,12.40
2023-02-20T18:36:13.121Z,13.40
2023-02-20T18:38:41.548Z,11.17
2023-02-20T18:41:11.977Z,12.33
2023-02-20T18:43:42.047Z,12.47
2023-02-20T18:46:10.411Z,10.40
2023-02-20T18:48:38.876Z,12.47
2023-02-20T18:51:07.480Z,12.20
2023-02-20T18:53:40.048Z,13.73
2023-02-20T18:56:13.215Z,13.53
2023-02-20T18:58:42.079Z,12.73
2023-02-20T19:01:10.478Z,12.20
2023-02-20T19:03:38.853Z,12.33
2023-02-20T19:06:07.528Z,14.23
2023-02-20T19:08:35.961Z,12.97
2023-02-20T19:11:06.504Z,13.77
2023-02-20T19:13:34.885Z,12.50
2023-02-20T19:16:03.186Z,14.33
2023-02-20T19:18:33.795Z,15.07
2023-02-20T19:21:03.877Z,13.20
2023-02-20T19:23:32.607Z,12.90
2023-02-20T19:26:01.020Z,16.93
2023-02-20T19:28:30.933Z,13.80
2023-02-20T19:31:01.322Z,14.80
2023-02-20T19:33:30.244Z,16.23
2023-02-20T19:35:58.719Z,15.77
2023-02-20T19:38:27.172Z,15.10
2023-02-20T19:40:55.475Z,14.63
2023-02-20T19:43:24.021Z,15.60
2023-02-20T19:45:53.779Z,13.57
2023-02-20T19:48:22.243Z,15.13
2023-02-20T19:50:50.681Z,15.80
2023-02-20T19:53:20.164Z,14.57
2023-02-20T19:55:49.851Z,13.33
2023-02-20T19:58:18.162Z,22.70
2023-02-20T20:00:46.640Z,16.20
2023-02-20T20:03:16.482Z,15.63
2023-02-20T20:05:44.790Z,18.00
2023-02-20T20:08:13.348Z,17.93
2023-02-20T20:10:42.710Z,18.30
2023-02-20T20:13:11.151Z,19.63
2023-02-20T20:15:40.452Z,19.03
2023-02-20T20:18:09.765Z,19.23
2023-02-20T20:20:39.501Z,19.97
2023-02-20T20:23:07.784Z,20.10
2023-02-20T20:25:36.521Z,21.93
2023-02-20T20:28:07.471Z,21.33
2023-02-20T20:30:38.347Z,20.60
2023-02-20T20:33:07.070Z,25.10
2023-02-20T20:35:35.914Z,21.40
2023-02-20T20:38:05.880Z,22.90
2023-02-20T20:40:34.223Z,20.17
2023-02-20T20:43:02.652Z,23.13
2023-02-20T20:45:30.984Z,22.20
2023-02-20T20:48:02.355Z,20.83
2023-02-20T20:50:33.069Z,21.70
2023-02-20T20:53:01.788Z,21.57
2023-02-20T20:55:34.044Z,18.80
2023-02-20T20:58:05.506Z,23.13
2023-02-20T21:00:34.468Z,21.57
2023-02-20T21:03:03.076Z,20.47
2023-02-20T21:05:35.792Z,21.10
2023-02-20T21:08:05.901Z,22.13
2023-02-20T21:10:36.389Z,18.80
2023-02-20T21:13:04.703Z,20.47
2023-02-20T21:15:34.298Z,20.87
2023-02-20T21:18:08.708Z,20.53
2023-02-20T21:20:37.115Z,22.43
2023-02-20T21:23:06.703Z,18.83
2023-02-20T21:25:36.511Z,22.77
2023-02-20T21:28:04.841Z,19.80
2023-02-20T21:30:33.186Z,19.17
2023-02-20T21:33:01.681Z,20.30
2023-02-20T21:35:29.990Z,23.13
2023-02-20T21:37:58.383Z,22.00
2023-02-20T21:40:31.689Z,21.60
2023-02-20T21:43:19.368Z,21.67
2023-02-20T21:45:49.741Z,20.47
2023-02-20T21:48:26.162Z,22.60
2023-02-20T21:50:54.394Z,21.87
2023-02-20T21:53:22.714Z,22.67
2023-02-20T21:55:50.930Z,22.00
2023-02-20T21:58:25.549Z,20.53
2023-02-20T22:00:52.664Z,21.70
2023-02-20T22:03:20.773Z,23.03
2023-02-20T22:05:47.951Z,21.90
2023-02-20T22:08:33.618Z,23.20
2023-02-20T22:11:19.437Z,20.20
2023-02-20T22:14:06.460Z,21.37
2023-02-20T22:16:52.442Z,24.40
2023-02-20T22:19:38.454Z,24.10
2023-02-20T22:22:24.677Z,22.37
2023-02-20T22:25:10.826Z,26.00
2023-02-20T22:27:56.740Z,25.87
2023-02-20T22:30:44.144Z,23.50
2023-02-20T22:33:30.455Z,27.13
2023-02-20T22:36:16.708Z,21.93
2023-02-20T22:39:02.436Z,24.70
2023-02-20T22:41:48.458Z,23.97
2023-02-20T22:44:34.397Z,25.97
2023-02-20T22:47:21.567Z,25.63
2023-02-20T22:50:07.503Z,24.30
2023-02-20T22:52:53.542Z,22.90
2023-02-20T22:55:39.741Z,26.20
2023-02-20T22:58:25.712Z,27.40
2023-02-20T23:01:11.999Z,26.20
2023-02-20T23:03:59.782Z,24.80
2023-02-20T23:06:46.176Z,26.80
2023-02-20T23:09:32.352Z,24.50
2023-02-20T23:12:18.183Z,25.00
2023-02-20T23:15:04.197Z,24.57
2023-02-20T23:17:50.330Z,26.07
2023-02-20T23:20:38.471Z,23.37
2023-02-20T23:23:25.108Z,23.53
2023-02-20T23:26:11.342Z,24.93
2023-02-20T23:28:57.818Z,22.00
2023-02-20T23:31:50.081Z,23.13
2023-02-20T23:34:36.164Z,22.23
2023-02-20T23:37:23.314Z,24.90
2023-02-20T23:40:09.469Z,23.10
2023-02-20T23:42:55.490Z,24.47
2023-02-20T23:45:41.636Z,22.33
2023-02-20T23:48:27.477Z,24.07
2023-02-20T23:51:13.577Z,23.20
2023-02-20T23:54:01.163Z,23.07
2023-02-20T23:56:47.010Z,24.00
2023-02-20T23:59:32.862Z,24.97
